Time;durP1;ratioP1;P1;durP2;ratioP2;P2;SDS_P1;SDS_P2;PMS_P1;PMS_P2;Temp;Humidity;BMP_temperature;BMP_pressure;BME280_temperature;BME280_humidity;BME280_pressure;Samples;Min_cycle;Max_cycle;Signal;HPM_P1;HPM_P2
2023/02/02 00:01:11;;;;;;;4.22;2.67;;;;;;;3.77;50.91;99532.03;4991567;28;20081;-70
2023/02/02 00:03:37;;;;;;;5.20;3.63;;;;;;;3.65;51.33;99524.09;4974436;28;20042;-69
2023/02/02 00:06:03;;;;;;;6.68;4.13;;;;;;;3.56;52.23;99531.34;4973221;28;20034;-69
2023/02/02 00:08:29;;;;;;;12.60;5.35;;;;;;;3.46;51.93;99524.78;4979209;28;20026;-70
2023/02/02 00:10:54;;;;;;;6.88;5.00;;;;;;;3.45;54.33;99525.06;4992625;28;20033;-69
2023/02/02 00:13:19;;;;;;;8.43;5.07;;;;;;;3.11;54.03;99534.91;4974860;28;20035;-69
2023/02/02 00:15:45;;;;;;;7.22;4.88;;;;;;;3.31;55.19;99524.88;4974558;28;20085;-69
2023/02/02 00:18:10;;;;;;;7.18;5.00;;;;;;;3.44;55.99;99535.28;4977059;28;20086;-69
2023/02/02 00:20:36;;;;;;;9.98;5.95;;;;;;;2.21;58.35;99542.91;4984154;28;20486;-69
2023/02/02 00:23:03;;;;;;;16.95;9.60;;;;;;;2.21;58.67;99537.38;4977421;28;20383;-69
2023/02/02 00:25:29;;;;;;;15.35;8.73;;;;;;;2.62;58.55;99548.34;4974148;28;20474;-69
2023/02/02 00:27:55;;;;;;;17.55;10.05;;;;;;;1.72;60.02;99550.63;4974048;28;20031;-69
2023/02/02 00:30:21;;;;;;;26.35;12.95;;;;;;;1.85;60.26;99548.44;4978251;28;20504;-69
2023/02/02 00:32:47;;;;;;;26.85;13.52;;;;;;;2.26;60.97;99536.56;4997020;28;20025;-69
2023/02/02 00:35:16;;;;;;;23.42;12.23;;;;;;;2.45;59.85;99534.03;4998031;28;20037;-69
2023/02/02 00:37:42;;;;;;;20.48;11.35;;;;;;;2.56;59.34;99527.38;4992128;28;20030;-69
2023/02/02 00:40:09;;;;;;;25.23;13.95;;;;;;;2.50;58.50;99531.25;4993460;28;20085;-69
2023/02/02 00:42:34;;;;;;;29.52;14.27;;;;;;;2.38;58.94;99531.56;4986497;28;20026;-69
2023/02/02 00:45:14;;;;;;;34.22;16.48;;;;;;;2.29;59.21;99533.22;4973840;28;20375;-69
2023/02/02 00:47:44;;;;;;;28.58;15.88;;;;;;;2.12;60.39;99541.81;4972592;28;20027;-69
2023/02/02 00:50:12;;;;;;;25.73;12.95;;;;;;;1.98;60.86;99524.97;4973784;28;20026;-69
2023/02/02 00:52:38;;;;;;;24.83;14.63;;;;;;;2.10;60.25;99534.63;4972382;28;20496;-69
2023/02/02 00:55:04;;;;;;;16.95;10.43;;;;;;;2.09;59.11;99530.22;4980193;28;20109;-69
2023/02/02 00:57:29;;;;;;;23.10;10.55;;;;;;;2.26;59.58;99537.38;4993102;28;20031;-69
2023/02/02 00:59:54;;;;;;;22.80;11.20;;;;;;;2.10;59.85;99542.91;4993219;28;20014;-69
2023/02/02 01:02:20;;;;;;;17.67;11.60;;;;;;;2.31;59.76;99537.38;4991140;28;20030;-70
2023/02/02 01:04:46;;;;;;;23.52;10.65;;;;;;;2.39;59.03;99539.56;4992757;28;20226;-69
2023/02/02 01:07:11;;;;;;;17.83;9.88;;;;;;;2.45;58.61;99536.81;4982498;28;20031;-69
2023/02/02 01:09:36;;;;;;;20.13;10.68;;;;;;;2.31;58.42;99526.34;4972087;28;20527;-70
2023/02/02 01:12:02;;;;;;;13.85;9.02;;;;;;;2.26;57.93;99531.03;4978150;28;20033;-69
2023/02/02 01:14:27;;;;;;;13.93;8.75;;;;;;;2.45;57.90;99534.03;4991755;28;20029;-69
2023/02/02 01:16:53;;;;;;;13.30;7.57;;;;;;;2.49;57.83;99540.66;5003202;28;20056;-70
2023/02/02 01:19:18;;;;;;;24.10;12.68;;;;;;;1.99;60.16;99540.41;4993677;28;20023;-69
2023/02/02 01:21:44;;;;;;;16.77;10.57;;;;;;;2.33;59.91;99528.78;4971970;28;20034;-69
2023/02/02 01:24:09;;;;;;;15.63;8.30;;;;;;;2.35;58.85;99532.09;4973435;28;20035;-69
2023/02/02 01:26:35;;;;;;;52.33;20.27;;;;;;;2.51;57.99;99542.03;4971853;28;20446;-69
2023/02/02 01:29:00;;;;;;;24.58;11.52;;;;;;;2.53;58.06;99547.25;4975309;28;20030;-69
2023/02/02 01:31:25;;;;;;;21.35;9.95;;;;;;;2.73;57.68;99548.31;4984044;28;20035;-70
2023/02/02 01:33:51;;;;;;;35.45;16.00;;;;;;;2.75;57.03;99551.63;4992493;28;20041;-70
2023/02/02 01:36:21;;;;;;;41.08;17.27;;;;;;;2.85;56.87;99559.06;4992600;28;20397;-69
2023/02/02 01:38:47;;;;;;;25.55;10.20;;;;;;;2.98;56.61;99560.41;4990679;28;20504;-69
2023/02/02 01:41:19;;;;;;;17.33;8.55;;;;;;;3.04;56.55;99553.75;4992632;28;20060;-69
2023/02/02 01:43:44;;;;;;;11.82;6.38;;;;;;;3.19;56.25;99553.69;4973678;28;20030;-69
2023/02/02 01:46:15;;;;;;;11.25;5.82;;;;;;;3.10;56.03;99544.31;4973092;28;20601;-69
2023/02/02 01:48:45;;;;;;;12.32;5.38;;;;;;;3.23;55.72;99540.94;4971616;28;20057;-69
2023/02/02 01:51:16;;;;;;;11.38;5.05;;;;;;;3.02;56.15;99531.91;4972707;28;20027;-69
2023/02/02 01:53:43;;;;;;;7.68;4.63;;;;;;;2.98;56.58;99538.28;4990333;28;20413;-69
2023/02/02 01:56:13;;;;;;;6.78;4.18;;;;;;;3.07;56.53;99542.13;4979576;28;20057;-69
2023/02/02 01:58:41;;;;;;;5.57;3.20;;;;;;;3.03;55.79;99541.06;4972740;28;20027;-69
2023/02/02 02:01:07;;;;;;;4.82;2.50;;;;;;;3.09;55.26;99528.84;4972883;28;20042;-69
2023/02/02 02:03:36;;;;;;;4.97;2.80;;;;;;;3.12;55.80;99536.56;4988455;28;20030;-69
2023/02/02 02:06:06;;;;;;;8.43;3.75;;;;;;;3.13;56.33;99554.00;4980838;28;20035;-69
2023/02/02 02:08:37;;;;;;;4.55;2.90;;;;;;;3.27;55.10;99545.91;4974387;28;20447;-69
2023/02/02 02:11:02;;;;;;;8.18;4.80;;;;;;;3.18;55.71;99545.66;4992182;28;20041;-69
2023/02/02 02:16:45;;;;;;;6.03;4.00;;;;;;;3.26;55.33;99555.28;4951400;29;20066;-69
2023/02/02 02:26:32;;;;;;;7.10;3.55;;;;;;;3.27;55.44;99552.25;4950317;29;20027;-69
2023/02/02 02:29:31;;;;;;;4.45;3.38;;;;;;;3.45;54.66;99539.72;4995226;28;20157;-69
2023/02/02 02:32:14;;;;;;;5.85;2.90;;;;;;;3.27;55.34;99529.31;4995115;28;20034;-69
2023/02/02 02:35:09;;;;;;;2.95;2.20;;;;;;;3.18;55.30;99521.63;4995005;28;20033;-69
2023/02/02 02:37:49;;;;;;;5.00;2.83;;;;;;;3.22;54.92;99517.16;4994766;28;20022;-69
2023/02/02 02:40:39;;;;;;;2.65;2.20;;;;;;;3.21;55.45;99523.00;4995694;28;20106;-69
2023/02/02 02:43:19;;;;;;;6.82;4.30;;;;;;;3.22;55.67;99525.47;4985130;28;20113;-69
2023/02/02 02:45:45;;;;;;;3.30;2.15;;;;;;;3.14;55.53;99525.22;4975839;28;20109;-70
2023/02/02 02:48:10;;;;;;;3.92;2.42;;;;;;;3.16;55.45;99521.09;4990893;28;20027;-70
2023/02/02 02:50:37;;;;;;;3.90;3.17;;;;;;;3.13;55.55;99518.06;4976216;28;20625;-70
2023/02/02 02:53:12;;;;;;;6.38;3.08;;;;;;;3.15;56.12;99522.19;4986941;28;20030;-69
2023/02/02 02:55:56;;;;;;;4.57;3.28;;;;;;;3.05;55.99;99519.47;4995456;28;20029;-69
2023/02/02 02:58:42;;;;;;;5.22;3.40;;;;;;;3.01;56.16;99524.75;4995361;28;20521;-70
2023/02/02 03:01:28;;;;;;;4.80;3.42;;;;;;;3.17;56.48;99531.03;4994893;28;20030;-70
2023/02/02 03:04:10;;;;;;;5.05;3.33;;;;;;;3.00;56.19;99530.53;4976590;28;20165;-70
2023/02/02 03:06:58;;;;;;;3.60;2.80;;;;;;;2.94;56.19;99533.34;4976164;28;20371;-69
2023/02/02 03:09:29;;;;;;;5.00;3.05;;;;;;;2.86;56.86;99527.56;4975537;28;20027;-69
2023/02/02 03:11:55;;;;;;;3.83;3.13;;;;;;;2.77;57.21;99530.06;4976928;28;20077;-69
2023/02/02 03:14:20;;;;;;;3.83;2.63;;;;;;;2.78;56.60;99534.50;4988310;28;20026;-69
2023/02/02 03:16:46;;;;;;;3.20;2.33;;;;;;;2.84;56.96;99525.09;4974271;28;20474;-69
2023/02/02 03:19:12;;;;;;;3.55;2.20;;;;;;;2.95;56.21;99521.16;4984534;28;20097;-69
2023/02/02 03:21:37;;;;;;;4.25;2.80;;;;;;;2.99;55.63;99526.13;4994537;28;20030;-69
2023/02/02 03:24:03;;;;;;;3.42;2.65;;;;;;;3.19;55.45;99523.28;4974123;28;20034;-70
2023/02/02 03:26:28;;;;;;;3.22;2.50;;;;;;;3.27;55.14;99523.78;4991077;28;20091;-69
2023/02/02 03:28:58;;;;;;;4.03;3.10;;;;;;;3.35;54.95;99529.53;4974665;28;20409;-70
2023/02/02 03:31:27;;;;;;;4.50;2.22;;;;;;;3.21;55.30;99515.50;4973229;28;20402;-70
2023/02/02 03:33:53;;;;;;;6.00;2.28;;;;;;;3.14;55.42;99514.19;4990834;28;20517;-70
2023/02/02 03:36:19;;;;;;;2.90;2.53;;;;;;;3.16;55.84;99526.59;4992679;28;20079;-70
2023/02/02 03:38:45;;;;;;;4.50;3.15;;;;;;;3.10;56.08;99513.91;4974749;28;20029;-69
2023/02/02 03:41:10;;;;;;;4.18;3.15;;;;;;;3.19;55.60;99523.28;4974827;28;20493;-69
2023/02/02 03:43:36;;;;;;;8.90;4.43;;;;;;;3.01;56.01;99521.97;4989223;28;20146;-70
2023/02/02 03:46:03;;;;;;;10.57;4.68;;;;;;;2.94;55.50;99513.16;4994093;28;20502;-70
2023/02/02 03:48:30;;;;;;;18.85;9.63;;;;;;;2.75;56.05;99510.19;4974970;28;20034;-70
2023/02/02 03:50:55;;;;;;;13.02;7.20;;;;;;;2.60;57.06;99516.63;4994200;28;20114;-69
2023/02/02 03:53:22;;;;;;;14.48;5.20;;;;;;;2.64;57.46;99521.28;4981370;28;20058;-70
2023/02/02 03:55:47;;;;;;;5.35;2.85;;;;;;;2.59;57.59;99518.53;4973612;28;20467;-69
2023/02/02 03:58:13;;;;;;;12.20;5.28;;;;;;;2.62;57.18;99515.19;4973706;28;20109;-70
2023/02/02 04:00:38;;;;;;;15.00;6.60;;;;;;;2.58;57.00;99519.66;4976676;28;20027;-69
2023/02/02 04:03:04;;;;;;;17.33;6.93;;;;;;;2.58;57.20;99519.66;4982383;28;20023;-69
2023/02/02 04:05:30;;;;;;;16.40;5.63;;;;;;;2.45;57.43;99514.72;4974598;28;20058;-69
2023/02/02 04:07:55;;;;;;;21.50;6.55;;;;;;;2.43;57.33;99503.94;4974737;28;20027;-70
2023/02/02 04:10:21;;;;;;;35.42;12.20;;;;;;;2.55;57.37;99516.59;4975161;28;20038;-70
2023/02/02 04:12:46;;;;;;;55.65;20.02;;;;;;;2.51;57.47;99514.41;4991864;28;20029;-69
2023/02/02 04:15:12;;;;;;;14.60;5.97;;;;;;;2.47;57.96;99518.00;4991991;28;20034;-70
2023/02/02 04:17:37;;;;;;;8.25;4.72;;;;;;;2.65;57.80;99524.88;4993851;28;20563;-69
2023/02/02 04:20:05;;;;;;;9.20;5.63;;;;;;;2.62;57.63;99520.72;4993919;28;20022;-69
2023/02/02 04:22:30;;;;;;;17.35;8.77;;;;;;;2.58;57.71;99525.16;4989110;28;20398;-69
2023/02/02 04:24:56;;;;;;;22.10;10.93;;;;;;;2.51;57.76;99522.69;4991267;28;20037;-70
2023/02/02 04:27:21;;;;;;;13.82;7.55;;;;;;;2.57;57.45;99528.19;4993751;28;20432;-69
2023/02/02 04:29:47;;;;;;;11.80;4.07;;;;;;;2.57;57.55;99537.31;4983062;28;20031;-69
2023/02/02 04:32:17;;;;;;;22.83;8.20;;;;;;;2.52;58.16;99534.56;4977594;28;20026;-69
2023/02/02 04:34:43;;;;;;;7.10;4.07;;;;;;;2.54;57.98;99540.66;4992445;28;20089;-72
2023/02/02 04:37:09;;;;;;;11.15;6.93;;;;;;;2.48;58.24;99536.22;4993749;28;20036;-69
2023/02/02 04:39:34;;;;;;;19.90;8.85;;;;;;;2.41;58.23;99541.19;4993558;28;20350;-69
2023/02/02 04:42:00;;;;;;;6.90;4.80;;;;;;;2.58;57.84;99541.75;4992728;28;20085;-73
2023/02/02 04:44:25;;;;;;;4.10;3.03;;;;;;;2.63;57.77;99544.47;4992134;28;20037;-69
2023/02/02 04:46:51;;;;;;;3.63;2.35;;;;;;;2.55;57.92;99547.81;4991380;28;20617;-69
2023/02/02 04:49:16;;;;;;;2.50;2.30;;;;;;;2.50;58.04;99542.31;4993188;28;20026;-69
2023/02/02 04:51:42;;;;;;;4.90;2.30;;;;;;;2.48;58.17;99548.13;4992099;28;20026;-70
2023/02/02 04:54:08;;;;;;;3.95;2.47;;;;;;;2.43;58.09;99550.88;4991859;28;20133;-69
2023/02/02 04:56:34;;;;;;;2.72;2.30;;;;;;;2.55;58.18;99558.88;4993126;28;20533;-70
2023/02/02 04:58:59;;;;;;;3.97;2.60;;;;;;;2.57;57.85;99558.56;4986557;28;20093;-69
2023/02/02 05:01:25;;;;;;;2.50;2.10;;;;;;;2.36;57.80;99553.91;4973621;28;20029;-69
2023/02/02 05:03:51;;;;;;;2.75;2.40;;;;;;;2.35;57.92;99566.06;4975276;28;20050;-69
2023/02/02 05:06:18;;;;;;;3.45;2.33;;;;;;;2.32;58.43;99560.28;4981529;28;20088;-69
2023/02/02 05:08:44;;;;;;;2.53;2.10;;;;;;;2.34;58.19;99560.81;4991545;28;20400;-69
2023/02/02 05:11:12;;;;;;;2.60;2.33;;;;;;;2.33;58.37;99562.78;4991075;28;20041;-69
2023/02/02 05:13:38;;;;;;;3.08;2.55;;;;;;;2.22;58.65;99564.69;4989573;28;20038;-69
2023/02/02 05:16:04;;;;;;;3.35;2.53;;;;;;;2.28;58.68;99581.28;4992654;28;20128;-69
2023/02/02 05:18:30;;;;;;;4.15;2.88;;;;;;;2.25;58.79;99568.84;4991256;28;20181;-69
2023/02/02 05:20:59;;;;;;;3.40;2.67;;;;;;;2.39;58.40;99575.44;4975262;28;20114;-69
2023/02/02 05:23:25;;;;;;;4.70;2.80;;;;;;;2.37;58.13;99574.91;4973193;28;20091;-70
2023/02/02 05:25:52;;;;;;;4.93;3.42;;;;;;;2.35;58.56;99579.03;4972249;28;20512;-69
2023/02/02 05:28:18;;;;;;;14.68;3.50;;;;;;;2.34;58.52;99575.47;4973236;28;20027;-69
2023/02/02 05:30:43;;;;;;;7.32;3.35;;;;;;;2.37;58.61;99572.13;4974569;28;20395;-69
2023/02/02 05:33:10;;;;;;;8.52;6.63;;;;;;;2.29;58.61;99580.97;4985750;28;20077;-69
2023/02/02 05:35:35;;;;;;;9.10;6.03;;;;;;;2.35;58.60;99582.63;4973052;28;20045;-69
2023/02/02 05:38:01;;;;;;;33.40;5.97;;;;;;;2.58;58.14;99590.59;4987505;28;20545;-69
2023/02/02 05:40:26;;;;;;;6.05;4.80;;;;;;;2.59;57.78;99593.09;4990076;28;20042;-69
2023/02/02 05:42:52;;;;;;;3.65;3.28;;;;;;;2.41;57.99;99585.38;4988634;28;20026;-70
2023/02/02 05:45:17;;;;;;;4.70;2.70;;;;;;;2.48;57.85;99577.66;4985114;28;20051;-69
2023/02/02 05:47:43;;;;;;;8.68;4.05;;;;;;;2.62;57.10;99581.50;4987500;28;20034;-69
2023/02/02 05:50:09;;;;;;;6.40;4.68;;;;;;;2.48;57.17;99588.69;4981160;28;20027;-69
2023/02/02 05:52:36;;;;;;;9.05;5.78;;;;;;;2.36;57.33;99589.81;4974335;28;20029;-68
2023/02/02 05:55:02;;;;;;;24.40;11.48;;;;;;;2.28;57.71;99587.59;4990467;28;20030;-68
2023/02/02 05:57:28;;;;;;;31.88;14.35;;;;;;;2.41;57.25;99599.19;4979770;28;20027;-67
2023/02/02 05:59:54;;;;;;;16.20;9.13;;;;;;;2.41;57.43;99588.16;4981031;28;20038;-67
2023/02/02 06:02:19;;;;;;;17.48;8.52;;;;;;;2.37;57.50;99585.94;4985251;28;20035;-67
2023/02/02 06:04:45;;;;;;;114.93;42.42;;;;;;;2.39;57.22;99600.28;4977074;28;20022;-67
2023/02/02 06:07:11;;;;;;;58.63;32.20;;;;;;;2.58;56.97;99596.97;4982220;28;20027;-67
2023/02/02 06:09:36;;;;;;;54.50;31.08;;;;;;;2.72;56.45;99604.69;4976365;28;20401;-68
2023/02/02 06:12:02;;;;;;;84.35;58.15;;;;;;;2.80;56.51;99599.41;4981968;28;20132;-66
2023/02/02 06:14:28;;;;;;;25.05;15.20;;;;;;;2.94;55.95;99609.88;4969319;28;20114;-68
2023/02/02 06:16:54;;;;;;;56.97;49.55;;;;;;;3.20;55.91;99612.56;4970695;28;20785;-68
2023/02/02 06:19:19;;;;;;;31.73;25.33;;;;;;;3.23;55.39;99612.00;4975483;28;20485;-71
2023/02/02 06:21:45;;;;;;;37.70;22.95;;;;;;;3.14;55.88;99614.53;4982126;28;20437;-69
2023/02/02 06:24:10;;;;;;;30.35;20.92;;;;;;;3.28;55.26;99613.91;4987587;28;20061;-68
2023/02/02 06:26:36;;;;;;;73.93;44.45;;;;;;;3.31;54.33;99616.13;4986790;28;20030;-67
2023/02/02 06:29:01;;;;;;;71.18;36.47;;;;;;;3.41;54.58;99607.78;4975682;28;20082;-68
2023/02/02 06:31:27;;;;;;;40.08;21.05;;;;;;;3.50;54.79;99611.59;4978774;28;20055;-68
2023/02/02 06:33:57;;;;;;;73.43;55.72;;;;;;;3.63;54.51;99609.34;4981715;28;20034;-67
2023/02/02 06:36:25;;;;;;;14.70;10.50;;;;;;;3.61;54.21;99611.53;4984032;28;20023;-68
2023/02/02 06:38:53;;;;;;;45.28;31.33;;;;;;;3.63;54.98;99614.88;4980475;28;20057;-67
2023/02/02 06:41:19;;;;;;;10.73;7.30;;;;;;;3.67;55.13;99607.63;4980434;28;20500;-67
2023/02/02 06:43:46;;;;;;;14.25;8.55;;;;;;;3.87;54.36;99614.16;4977212;28;20155;-67
2023/02/02 06:46:11;;;;;;;63.47;43.40;;;;;;;4.02;54.31;99614.06;4989526;28;20046;-67
2023/02/02 06:48:37;;;;;;;49.00;36.88;;;;;;;4.10;53.70;99617.31;4981599;28;20065;-68
2023/02/02 06:51:04;;;;;;;49.30;30.40;;;;;;;4.24;53.20;99621.09;4975511;28;20030;-70
2023/02/02 06:53:30;;;;;;;25.38;15.88;;;;;;;4.38;53.33;99617.66;4980915;28;20046;-68
2023/02/02 06:56:07;;;;;;;38.00;26.58;;;;;;;4.44;53.12;99616.50;4980071;28;20565;-72
2023/02/02 06:58:33;;;;;;;16.17;11.30;;;;;;;4.70;52.36;99619.88;4983825;28;20026;-71
2023/02/02 07:01:08;;;;;;;35.85;28.45;;;;;;;4.75;52.02;99627.31;5003650;28;20034;-71
2023/02/02 07:03:34;;;;;;;17.63;9.52;;;;;;;4.91;51.56;99630.75;4975164;28;20031;-71
2023/02/02 07:06:10;;;;;;;6.80;4.72;;;;;;;5.10;50.90;99632.75;4986953;28;20023;-69
2023/02/02 07:08:35;;;;;;;15.80;7.45;;;;;;;5.23;50.80;99637.59;4987396;28;20517;-71
2023/02/02 07:11:01;;;;;;;22.27;16.50;;;;;;;5.30;50.36;99634.47;4990341;28;20453;-70
2023/02/02 07:13:26;;;;;;;43.53;34.40;;;;;;;5.22;50.56;99643.44;4990270;28;20089;-73
2023/02/02 07:15:53;;;;;;;29.52;23.40;;;;;;;5.30;49.66;99637.22;4983819;28;20417;-72
2023/02/02 07:18:19;;;;;;;54.25;42.72;;;;;;;5.38;49.62;99633.81;4979670;28;20018;-73
2023/02/02 07:20:44;;;;;;;18.20;13.88;;;;;;;5.52;49.15;99633.09;4989814;28;20379;-76
2023/02/02 07:23:09;;;;;;;12.70;7.82;;;;;;;5.60;48.30;99626.88;4986304;28;20026;-76
2023/02/02 07:25:35;;;;;;;10.32;6.65;;;;;;;5.82;48.21;99633.81;4981581;28;20027;-74
2023/02/02 07:28:00;;;;;;;12.93;6.07;;;;;;;5.69;47.42;99627.03;4985345;28;20045;-76
2023/02/02 07:30:28;;;;;;;6.72;3.88;;;;;;;5.53;47.59;99631.97;4992655;28;20026;-74
2023/02/02 07:32:54;;;;;;;16.70;6.10;;;;;;;5.52;49.06;99631.16;4982409;28;20501;-70
2023/02/02 07:35:20;;;;;;;10.95;6.13;;;;;;;5.64;48.27;99638.22;4990219;28;20501;-70
2023/02/02 07:37:52;;;;;;;14.18;6.13;;;;;;;5.80;48.12;99633.31;4991950;28;20036;-71
2023/02/02 07:40:18;;;;;;;13.25;5.70;;;;;;;5.92;47.08;99633.69;4984798;28;20412;-70
2023/02/02 07:42:46;;;;;;;11.88;6.18;;;;;;;6.03;46.98;99628.81;4989868;28;20042;-70
2023/02/02 07:45:11;;;;;;;12.73;6.28;;;;;;;6.20;47.16;99622.72;4985874;28;20521;-74
2023/02/02 07:47:37;;;;;;;12.93;6.15;;;;;;;6.44;46.20;99635.69;4988388;28;20410;-72
2023/02/02 07:50:02;;;;;;;19.33;6.97;;;;;;;6.17;45.38;99620.56;4977140;28;20497;-68
2023/02/02 07:52:29;;;;;;;9.65;5.32;;;;;;;6.08;45.68;99633.47;4989954;28;20030;-70
2023/02/02 07:54:54;;;;;;;15.93;6.55;;;;;;;6.02;45.97;99627.97;4980822;28;20035;-69
2023/02/02 07:57:20;;;;;;;7.95;5.13;;;;;;;6.11;44.92;99633.69;4989013;28;20056;-69
2023/02/02 07:59:45;;;;;;;12.43;5.43;;;;;;;6.43;44.50;99625.72;5005193;28;20034;-69
2023/02/02 08:02:11;;;;;;;14.15;8.90;;;;;;;6.41;45.30;99622.41;4989791;28;20041;-69
2023/02/02 08:04:37;;;;;;;7.82;4.78;;;;;;;6.34;44.76;99633.06;4983209;28;20034;-69
2023/02/02 08:07:02;;;;;;;8.88;4.40;;;;;;;6.27;45.17;99625.94;4991493;28;20026;-69
2023/02/02 08:09:28;;;;;;;22.00;6.60;;;;;;;6.60;44.64;99639.03;4981274;28;20045;-69
2023/02/02 08:11:53;;;;;;;7.88;4.40;;;;;;;6.75;44.22;99637.94;4991054;28;20394;-69
2023/02/02 08:14:19;;;;;;;5.88;3.30;;;;;;;7.03;44.34;99635.22;4993234;28;20478;-70
2023/02/02 08:16:44;;;;;;;6.75;4.43;;;;;;;7.30;44.05;99637.19;4992287;28;20477;-69
2023/02/02 08:19:10;;;;;;;4.63;3.45;;;;;;;7.49;42.59;99630.69;4993369;28;20089;-69
2023/02/02 08:21:36;;;;;;;11.57;3.60;;;;;;;7.63;41.41;99621.50;4988391;28;20485;-69
2023/02/02 08:24:03;;;;;;;5.18;3.08;;;;;;;7.87;40.54;99607.31;4973894;28;20110;-69
2023/02/02 08:26:30;;;;;;;10.05;2.30;;;;;;;8.06;40.69;99606.31;4974360;28;20030;-70
2023/02/02 08:29:06;;;;;;;7.40;2.83;;;;;;;7.99;40.45;99618.75;4974088;28;20150;-69
2023/02/02 08:31:35;;;;;;;3.72;2.40;;;;;;;8.06;40.58;99614.69;4988789;28;20417;-71
2023/02/02 08:34:02;;;;;;;5.22;3.25;;;;;;;8.33;40.18;99612.94;4977986;28;20060;-69
2023/02/02 08:36:29;;;;;;;5.72;3.50;;;;;;;8.47;40.04;99604.50;4983834;28;20069;-70
2023/02/02 08:38:55;;;;;;;15.48;6.28;;;;;;;8.67;40.64;99611.53;4992564;28;20109;-70
2023/02/02 08:41:22;;;;;;;26.92;4.45;;;;;;;8.91;39.58;99604.78;4977545;28;20060;-69
2023/02/02 08:43:50;;;;;;;6.40;4.63;;;;;;;8.88;40.17;99605.44;4990699;28;20046;-69
2023/02/02 08:46:17;;;;;;;16.90;6.35;;;;;;;9.08;39.54;99599.31;4989953;28;20425;-69
2023/02/02 08:48:44;;;;;;;8.20;5.63;;;;;;;9.42;39.11;99602.53;4991840;28;20449;-69
2023/02/02 08:51:11;;;;;;;13.07;5.38;;;;;;;9.40;39.14;99593.66;4986603;28;20022;-69
2023/02/02 08:53:37;;;;;;;8.23;4.82;;;;;;;9.41;38.78;99586.94;5002636;28;20522;-69
2023/02/02 08:56:06;;;;;;;4.85;3.80;;;;;;;9.50;39.16;99586.94;4987335;28;20027;-69
2023/02/02 08:58:32;;;;;;;16.85;6.07;;;;;;;9.25;38.99;99573.44;4973712;28;20490;-70
2023/02/02 09:01:12;;;;;;;10.70;5.75;;;;;;;9.19;39.78;99579.47;4972523;28;20039;-69
2023/02/02 09:03:39;;;;;;;9.77;4.22;;;;;;;9.17;38.69;99565.00;4972363;28;20027;-69
2023/02/02 09:06:10;;;;;;;10.20;4.78;;;;;;;9.30;39.03;99569.66;4979914;28;20425;-69
2023/02/02 09:08:36;;;;;;;11.63;5.22;;;;;;;9.11;39.49;99570.75;4992304;28;20023;-69
2023/02/02 09:11:04;;;;;;;9.35;5.18;;;;;;;8.92;40.76;99567.38;4990493;28;20054;-70
2023/02/02 09:13:29;;;;;;;12.02;6.75;;;;;;;9.13;39.71;99557.28;4991421;28;20034;-70
2023/02/02 09:15:58;;;;;;;8.25;4.97;;;;;;;9.17;39.99;99543.53;4987777;28;20026;-69
2023/02/02 09:18:24;;;;;;;13.90;7.57;;;;;;;9.52;39.12;99557.56;4981118;28;20109;-69
2023/02/02 09:20:49;;;;;;;13.40;6.03;;;;;;;9.61;39.95;99556.75;4977775;28;20030;-70
2023/02/02 09:23:15;;;;;;;12.73;7.00;;;;;;;9.47;38.67;99538.19;4975594;28;20494;-70
2023/02/02 09:25:43;;;;;;;10.60;6.28;;;;;;;9.44;39.97;99532.41;4983726;28;20030;-69
2023/02/02 09:28:09;;;;;;;7.85;5.13;;;;;;;9.87;39.03;99519.63;4972329;28;20027;-69
2023/02/02 09:30:34;;;;;;;12.00;7.45;;;;;;;9.80;39.62;99514.53;4975627;28;20853;-69
2023/02/02 09:33:00;;;;;;;20.45;7.50;;;;;;;10.11;39.47;99521.91;4986954;28;20042;-70
2023/02/02 09:35:25;;;;;;;21.60;8.48;;;;;;;9.95;38.90;99527.16;4986101;28;20023;-70
2023/02/02 09:37:51;;;;;;;13.68;6.40;;;;;;;10.04;39.07;99528.00;4996647;28;20034;-70
2023/02/02 09:40:18;;;;;;;10.73;6.07;;;;;;;9.87;37.87;99520.44;4977332;28;20339;-69
2023/02/02 09:43:20;;;;;;;9.15;5.05;;;;;;;9.78;37.34;99519.66;4984948;28;20057;-70
2023/02/02 09:46:04;;;;;;;6.43;4.68;;;;;;;9.90;38.84;99518.97;4977429;28;20104;-69
2023/02/02 09:48:57;;;;;;;6.05;4.55;;;;;;;9.83;36.48;99513.88;4986794;28;20034;-69
2023/02/02 09:51:27;;;;;;;10.88;5.22;;;;;;;9.96;38.08;99512.88;4981062;28;20098;-68
2023/02/02 09:53:59;;;;;;;8.45;5.15;;;;;;;9.83;37.68;99511.09;4975841;28;20383;-69
2023/02/02 09:56:40;;;;;;;7.72;4.60;;;;;;;10.14;37.51;99498.91;4988326;28;20034;-69
2023/02/02 09:59:16;;;;;;;7.63;3.72;;;;;;;10.27;37.13;99493.44;4987625;28;20029;-67
2023/02/02 10:01:43;;;;;;;7.95;2.97;;;;;;;9.98;36.23;99493.81;4986726;28;20030;-73
2023/02/02 10:04:42;;;;;;;6.35;4.18;;;;;;;10.07;36.68;99479.00;4977869;28;20170;-70
2023/02/02 10:07:40;;;;;;;4.50;3.00;;;;;;;10.39;37.02;99465.63;4979383;28;20035;-68
2023/02/02 10:10:38;;;;;;;2.30;2.10;;;;;;;10.28;36.95;99461.53;4979856;28;20069;-69
2023/02/02 10:13:11;;;;;;;7.68;4.00;;;;;;;10.69;37.65;99456.50;4977048;28;20097;-70
2023/02/02 10:16:06;;;;;;;7.65;3.78;;;;;;;10.63;37.18;99455.84;4983571;28;20030;-70
2023/02/02 10:18:58;;;;;;;15.48;5.82;;;;;;;10.57;36.98;99443.19;4980445;28;20073;-70
2023/02/02 10:21:39;;;;;;;7.53;4.03;;;;;;;10.48;37.07;99446.03;4982798;28;20517;-71
2023/02/02 10:24:12;;;;;;;10.00;4.53;;;;;;;10.37;37.57;99442.75;4982579;28;20034;-71
2023/02/02 10:26:42;;;;;;;7.22;3.72;;;;;;;10.52;37.75;99428.25;4987241;28;20028;-71
2023/02/02 10:29:35;;;;;;;12.95;5.85;;;;;;;10.90;36.39;99422.97;4981131;28;20042;-72
2023/02/02 10:32:09;;;;;;;8.75;3.38;;;;;;;11.09;35.31;99422.50;4983072;28;20428;-74
2023/02/02 10:34:50;;;;;;;8.10;4.63;;;;;;;11.15;35.38;99412.75;4995943;28;20033;-72
2023/02/02 10:37:41;;;;;;;9.32;3.75;;;;;;;11.08;34.42;99416.09;4986098;28;20038;-72
2023/02/02 10:40:45;;;;;;;5.95;3.20;;;;;;;11.17;34.10;99409.63;4985448;28;20105;-72
2023/02/02 10:43:45;;;;;;;8.02;4.53;;;;;;;11.43;34.98;99406.63;4981338;28;20164;-72
2023/02/02 10:46:17;;;;;;;3.80;2.67;;;;;;;11.50;33.06;99392.88;4991907;28;20050;-74
2023/02/02 10:48:46;;;;;;;3.22;2.60;;;;;;;11.29;32.08;99384.47;4992014;28;20050;-73
2023/02/02 10:51:26;;;;;;;9.80;3.78;;;;;;;11.64;32.83;99392.56;5002013;28;20025;-74
2023/02/02 10:53:54;;;;;;;11.10;5.22;;;;;;;11.79;33.09;99379.91;5000073;28;20093;-74
2023/02/02 10:56:35;;;;;;;3.58;2.80;;;;;;;11.67;31.65;99382.69;4987740;28;20472;-74
2023/02/02 10:59:08;;;;;;;3.05;2.65;;;;;;;11.57;31.66;99367.09;4990553;28;20034;-74
2023/02/02 11:01:34;;;;;;;8.95;3.78;;;;;;;11.54;32.56;99369.78;4988598;28;20037;-71
2023/02/02 11:06:49;;;;;;;10.55;3.08;;;;;;;11.59;31.82;99358.34;4990746;28;20100;-74
2023/02/02 11:09:22;;;;;;;5.97;2.88;;;;;;;12.01;32.13;99363.03;4987817;28;20030;-74
2023/02/02 11:12:05;;;;;;;3.58;3.22;;;;;;;12.25;30.86;99356.69;4989060;28;20556;-74
2023/02/02 11:14:46;;;;;;;8.68;4.53;;;;;;;12.44;30.61;99352.47;4981551;28;20038;-73
2023/02/02 11:17:22;;;;;;;;;;;;;;;12.39;29.80;99342.28;4986389;28;20038;-73
2023/02/02 11:19:48;;;;;;;3.38;2.78;;;;;;;12.30;28.79;99336.81;4992332;28;19922;-74
2023/02/02 11:22:24;;;;;;;8.40;5.30;;;;;;;12.53;29.11;99341.94;4987597;28;20018;-74
2023/02/02 11:24:52;;;;;;;10.57;4.50;;;;;;;12.38;29.11;99321.03;4988252;28;20502;-74
2023/02/02 11:27:41;;;;;;;7.80;7.10;;;;;;;12.59;28.74;99315.28;4990143;28;20030;-73
2023/02/02 11:30:33;;;;;;;25.50;13.88;;;;;;;12.80;28.20;99316.31;4989388;28;20022;-73
2023/02/02 11:32:58;;;;;;;4.55;3.60;;;;;;;12.89;28.42;99312.19;4984202;28;20101;-73
2023/02/02 11:35:30;;;;;;;8.77;6.38;;;;;;;12.91;28.27;99298.63;4987780;28;20022;-73
2023/02/02 11:38:15;;;;;;;11.23;6.97;;;;;;;13.03;27.99;99300.59;4988580;28;20109;-73
2023/02/02 11:41:03;;;;;;;8.07;4.40;;;;;;;12.87;28.20;99286.47;4988129;28;20026;-75
2023/02/02 11:43:51;;;;;;;9.73;4.95;;;;;;;12.75;28.63;99287.31;4990328;28;20037;-70
2023/02/02 11:46:23;;;;;;;4.32;2.63;;;;;;;12.47;28.29;99290.03;4989828;28;20046;-73
2023/02/02 11:48:55;;;;;;;13.07;5.65;;;;;;;12.72;29.53;99278.78;4978132;28;20497;-73
2023/02/02 11:51:23;;;;;;;13.27;4.30;;;;;;;13.05;28.45;99270.16;4985327;28;20037;-75
2023/02/02 11:54:01;;;;;;;11.75;3.33;;;;;;;13.23;28.40;99281.06;4989212;28;20053;-70
2023/02/02 11:56:26;;;;;;;4.30;3.20;;;;;;;13.06;27.51;99273.78;4984408;28;20124;-70
2023/02/02 11:58:58;;;;;;;5.68;2.60;;;;;;;12.79;27.46;99267.78;4993047;28;20038;-70